sensor_id;sensor_type;location;lat;lon;timestamp;temperature;humidity
26537;DHT22;14204;51.262;5.488;2023-07-31T00:00:13;19.40;99.90
26537;DHT22;14204;51.262;5.488;2023-07-31T00:02:38;19.30;99.90
26537;DHT22;14204;51.262;5.488;2023-07-31T00:05:04;19.30;99.90
26537;DHT22;14204;51.262;5.488;2023-07-31T00:07:31;19.30;99.90
26537;DHT22;14204;51.262;5.488;2023-07-31T00:09:57;19.30;99.90
26537;DHT22;14204;51.262;5.488;2023-07-31T00:12:23;19.30;99.90
26537;DHT22;14204;51.262;5.488;2023-07-31T00:14:49;19.30;99.90
26537;DHT22;14204;51.262;5.488;2023-07-31T00:17:17;19.40;99.90
26537;DHT22;14204;51.262;5.488;2023-07-31T00:19:43;19.30;99.90
26537;DHT22;14204;51.262;5.488;2023-07-31T00:22:11;19.30;99.90
26537;DHT22;14204;51.262;5.488;2023-07-31T00:24:37;19.30;99.90
26537;DHT22;14204;51.262;5.488;2023-07-31T00:27:03;19.30;99.90
26537;DHT22;14204;51.262;5.488;2023-07-31T00:29:28;19.30;99.90
26537;DHT22;14204;51.262;5.488;2023-07-31T00:31:54;19.20;99.90
26537;DHT22;14204;51.262;5.488;2023-07-31T00:34:20;19.20;99.90
26537;DHT22;14204;51.262;5.488;2023-07-31T00:36:46;19.20;99.90
26537;DHT22;14204;51.262;5.488;2023-07-31T00:39:11;19.20;99.90
26537;DHT22;14204;51.262;5.488;2023-07-31T00:41:37;19.20;99.90
26537;DHT22;14204;51.262;5.488;2023-07-31T00:44:03;19.10;99.90
26537;DHT22;14204;51.262;5.488;2023-07-31T00:46:28;19.10;99.90
26537;DHT22;14204;51.262;5.488;2023-07-31T00:48:54;19.10;99.90
26537;DHT22;14204;51.262;5.488;2023-07-31T00:51:20;19.00;99.90
26537;DHT22;14204;51.262;5.488;2023-07-31T00:53:47;19.10;99.90
26537;DHT22;14204;51.262;5.488;2023-07-31T00:56:12;19.00;99.90
26537;DHT22;14204;51.262;5.488;2023-07-31T00:58:39;19.00;99.90
26537;DHT22;14204;51.262;5.488;2023-07-31T01:01:04;19.00;99.90
26537;DHT22;14204;51.262;5.488;2023-07-31T01:03:30;19.00;99.90
26537;DHT22;14204;51.262;5.488;2023-07-31T01:06:22;19.00;99.90
26537;DHT22;14204;51.262;5.488;2023-07-31T01:11:48;18.90;99.90
26537;DHT22;14204;51.262;5.488;2023-07-31T01:14:17;18.90;99.90
26537;DHT22;14204;51.262;5.488;2023-07-31T01:16:43;19.00;99.90
26537;DHT22;14204;51.262;5.488;2023-07-31T01:19:09;18.90;99.90
26537;DHT22;14204;51.262;5.488;2023-07-31T01:24:22;19.00;99.90
26537;DHT22;14204;51.262;5.488;2023-07-31T01:27:10;18.90;99.90
26537;DHT22;14204;51.262;5.488;2023-07-31T01:32:05;19.00;99.90
26537;DHT22;14204;51.262;5.488;2023-07-31T01:34:32;18.90;99.90
26537;DHT22;14204;51.262;5.488;2023-07-31T01:36:58;18.90;99.90
26537;DHT22;14204;51.262;5.488;2023-07-31T01:39:24;18.90;99.90
26537;DHT22;14204;51.262;5.488;2023-07-31T01:41:50;19.00;99.90
26537;DHT22;14204;51.262;5.488;2023-07-31T01:44:16;19.00;99.90
26537;DHT22;14204;51.262;5.488;2023-07-31T01:46:42;19.00;99.90
26537;DHT22;14204;51.262;5.488;2023-07-31T01:49:07;18.90;99.90
26537;DHT22;14204;51.262;5.488;2023-07-31T01:51:33;18.90;99.90
26537;DHT22;14204;51.262;5.488;2023-07-31T01:54:02;18.90;99.90
26537;DHT22;14204;51.262;5.488;2023-07-31T01:56:27;18.90;99.90
26537;DHT22;14204;51.262;5.488;2023-07-31T01:58:53;18.90;99.90
26537;DHT22;14204;51.262;5.488;2023-07-31T02:01:19;18.80;99.90
26537;DHT22;14204;51.262;5.488;2023-07-31T02:03:44;18.80;99.90
26537;DHT22;14204;51.262;5.488;2023-07-31T02:06:10;18.80;99.90
26537;DHT22;14204;51.262;5.488;2023-07-31T02:08:36;18.80;99.90
26537;DHT22;14204;51.262;5.488;2023-07-31T02:11:01;18.80;99.90
26537;DHT22;14204;51.262;5.488;2023-07-31T02:13:27;18.90;99.90
26537;DHT22;14204;51.262;5.488;2023-07-31T02:15:53;18.90;99.90
26537;DHT22;14204;51.262;5.488;2023-07-31T02:18:19;18.90;99.90
26537;DHT22;14204;51.262;5.488;2023-07-31T02:20:49;18.80;99.90
26537;DHT22;14204;51.262;5.488;2023-07-31T02:23:15;18.80;99.90
26537;DHT22;14204;51.262;5.488;2023-07-31T02:25:41;18.80;99.90
26537;DHT22;14204;51.262;5.488;2023-07-31T02:28:06;18.90;99.90
26537;DHT22;14204;51.262;5.488;2023-07-31T02:30:32;18.90;99.90
26537;DHT22;14204;51.262;5.488;2023-07-31T02:32:57;18.90;99.90
26537;DHT22;14204;51.262;5.488;2023-07-31T02:35:23;18.90;99.90
26537;DHT22;14204;51.262;5.488;2023-07-31T02:37:49;18.90;99.90
26537;DHT22;14204;51.262;5.488;2023-07-31T02:40:14;18.70;99.90
26537;DHT22;14204;51.262;5.488;2023-07-31T02:42:40;18.80;99.90
26537;DHT22;14204;51.262;5.488;2023-07-31T02:45:06;18.90;99.90
26537;DHT22;14204;51.262;5.488;2023-07-31T02:47:32;18.90;99.90
26537;DHT22;14204;51.262;5.488;2023-07-31T02:49:58;18.90;99.90
26537;DHT22;14204;51.262;5.488;2023-07-31T02:52:24;18.80;99.90
26537;DHT22;14204;51.262;5.488;2023-07-31T02:54:50;18.80;99.90
26537;DHT22;14204;51.262;5.488;2023-07-31T02:57:16;18.80;99.90
26537;DHT22;14204;51.262;5.488;2023-07-31T02:59:41;18.80;99.90
26537;DHT22;14204;51.262;5.488;2023-07-31T03:02:07;18.80;99.90
26537;DHT22;14204;51.262;5.488;2023-07-31T03:04:33;18.80;99.90
26537;DHT22;14204;51.262;5.488;2023-07-31T03:06:59;18.90;99.90
26537;DHT22;14204;51.262;5.488;2023-07-31T03:09:24;18.90;99.90
26537;DHT22;14204;51.262;5.488;2023-07-31T03:11:50;19.00;99.90
26537;DHT22;14204;51.262;5.488;2023-07-31T03:14:15;18.90;99.90
26537;DHT22;14204;51.262;5.488;2023-07-31T03:16:41;18.90;99.90
26537;DHT22;14204;51.262;5.488;2023-07-31T03:19:07;18.90;99.90
26537;DHT22;14204;51.262;5.488;2023-07-31T03:21:32;18.90;99.90
26537;DHT22;14204;51.262;5.488;2023-07-31T03:23:58;19.00;99.90
26537;DHT22;14204;51.262;5.488;2023-07-31T03:26:24;19.00;99.90
26537;DHT22;14204;51.262;5.488;2023-07-31T03:28:49;19.00;99.90
26537;DHT22;14204;51.262;5.488;2023-07-31T03:31:15;19.00;99.90
26537;DHT22;14204;51.262;5.488;2023-07-31T03:33:40;18.90;99.90
26537;DHT22;14204;51.262;5.488;2023-07-31T03:36:06;19.00;99.90
26537;DHT22;14204;51.262;5.488;2023-07-31T03:38:34;19.00;99.90
26537;DHT22;14204;51.262;5.488;2023-07-31T03:40:59;19.00;99.90
26537;DHT22;14204;51.262;5.488;2023-07-31T03:43:25;19.00;99.90
26537;DHT22;14204;51.262;5.488;2023-07-31T03:45:51;19.00;99.90
26537;DHT22;14204;51.262;5.488;2023-07-31T03:48:17;19.00;99.90
26537;DHT22;14204;51.262;5.488;2023-07-31T03:50:43;19.00;99.90
26537;DHT22;14204;51.262;5.488;2023-07-31T03:53:08;19.00;99.90
26537;DHT22;14204;51.262;5.488;2023-07-31T03:55:34;19.00;99.90
26537;DHT22;14204;51.262;5.488;2023-07-31T03:58:00;19.00;99.90
26537;DHT22;14204;51.262;5.488;2023-07-31T04:00:26;19.10;99.90
26537;DHT22;14204;51.262;5.488;2023-07-31T04:02:52;19.00;99.90
26537;DHT22;14204;51.262;5.488;2023-07-31T04:05:18;19.00;99.90
26537;DHT22;14204;51.262;5.488;2023-07-31T04:07:44;19.10;99.90
26537;DHT22;14204;51.262;5.488;2023-07-31T04:10:09;19.20;99.90
26537;DHT22;14204;51.262;5.488;2023-07-31T04:12:35;19.20;99.90
26537;DHT22;14204;51.262;5.488;2023-07-31T04:15:01;19.20;99.90
26537;DHT22;14204;51.262;5.488;2023-07-31T04:17:27;19.20;99.90
26537;DHT22;14204;51.262;5.488;2023-07-31T04:19:52;19.20;99.90
26537;DHT22;14204;51.262;5.488;2023-07-31T04:22:18;19.20;99.90
26537;DHT22;14204;51.262;5.488;2023-07-31T04:24:44;19.20;99.90
26537;DHT22;14204;51.262;5.488;2023-07-31T04:27:10;19.10;99.90
26537;DHT22;14204;51.262;5.488;2023-07-31T04:29:35;19.20;99.90
26537;DHT22;14204;51.262;5.488;2023-07-31T04:32:01;19.10;99.90
26537;DHT22;14204;51.262;5.488;2023-07-31T04:34:27;19.10;99.90
26537;DHT22;14204;51.262;5.488;2023-07-31T04:36:52;19.00;99.90
26537;DHT22;14204;51.262;5.488;2023-07-31T04:39:18;19.10;99.90
26537;DHT22;14204;51.262;5.488;2023-07-31T04:41:44;19.10;99.90
26537;DHT22;14204;51.262;5.488;2023-07-31T04:44:10;19.10;99.90
26537;DHT22;14204;51.262;5.488;2023-07-31T04:46:36;19.10;99.90
26537;DHT22;14204;51.262;5.488;2023-07-31T04:49:03;19.10;99.90
26537;DHT22;14204;51.262;5.488;2023-07-31T04:51:29;19.20;99.90
26537;DHT22;14204;51.262;5.488;2023-07-31T04:53:54;19.20;99.90
26537;DHT22;14204;51.262;5.488;2023-07-31T04:56:20;19.30;99.90
26537;DHT22;14204;51.262;5.488;2023-07-31T04:58:45;19.30;99.90
26537;DHT22;14204;51.262;5.488;2023-07-31T05:01:11;19.30;99.90
26537;DHT22;14204;51.262;5.488;2023-07-31T05:03:37;19.30;99.90
26537;DHT22;14204;51.262;5.488;2023-07-31T05:06:03;19.30;99.90
26537;DHT22;14204;51.262;5.488;2023-07-31T05:08:28;19.40;99.90
26537;DHT22;14204;51.262;5.488;2023-07-31T05:10:54;19.30;99.90
26537;DHT22;14204;51.262;5.488;2023-07-31T05:13:20;19.40;99.90
26537;DHT22;14204;51.262;5.488;2023-07-31T05:15:46;19.30;99.90
26537;DHT22;14204;51.262;5.488;2023-07-31T05:18:14;19.30;99.90
26537;DHT22;14204;51.262;5.488;2023-07-31T05:20:40;19.30;99.90
26537;DHT22;14204;51.262;5.488;2023-07-31T05:23:06;19.30;99.90
26537;DHT22;14204;51.262;5.488;2023-07-31T05:25:32;19.30;99.90
26537;DHT22;14204;51.262;5.488;2023-07-31T05:27:58;19.30;99.90
26537;DHT22;14204;51.262;5.488;2023-07-31T05:30:24;19.20;99.90
26537;DHT22;14204;51.262;5.488;2023-07-31T05:32:49;19.20;99.90
26537;DHT22;14204;51.262;5.488;2023-07-31T05:35:15;19.20;99.90
26537;DHT22;14204;51.262;5.488;2023-07-31T05:37:41;19.10;99.90
26537;DHT22;14204;51.262;5.488;2023-07-31T05:40:07;19.10;99.90
26537;DHT22;14204;51.262;5.488;2023-07-31T05:42:33;18.90;99.90
26537;DHT22;14204;51.262;5.488;2023-07-31T05:44:58;19.00;99.90
26537;DHT22;14204;51.262;5.488;2023-07-31T05:47:24;19.00;99.90
26537;DHT22;14204;51.262;5.488;2023-07-31T05:49:50;19.00;99.90
26537;DHT22;14204;51.262;5.488;2023-07-31T05:52:19;19.00;99.90
26537;DHT22;14204;51.262;5.488;2023-07-31T05:54:45;19.00;99.90
26537;DHT22;14204;51.262;5.488;2023-07-31T05:57:11;19.00;99.90
26537;DHT22;14204;51.262;5.488;2023-07-31T05:59:37;19.00;99.90
26537;DHT22;14204;51.262;5.488;2023-07-31T06:02:03;19.00;99.90
26537;DHT22;14204;51.262;5.488;2023-07-31T06:04:29;19.10;99.90
26537;DHT22;14204;51.262;5.488;2023-07-31T06:06:55;19.00;99.90
26537;DHT22;14204;51.262;5.488;2023-07-31T06:09:21;19.00;99.90
26537;DHT22;14204;51.262;5.488;2023-07-31T06:11:47;19.00;99.90
26537;DHT22;14204;51.262;5.488;2023-07-31T06:14:13;19.00;99.90
26537;DHT22;14204;51.262;5.488;2023-07-31T06:16:38;19.00;99.90
26537;DHT22;14204;51.262;5.488;2023-07-31T06:19:04;19.00;99.90
26537;DHT22;14204;51.262;5.488;2023-07-31T06:21:30;19.00;99.90
26537;DHT22;14204;51.262;5.488;2023-07-31T06:23:56;19.00;99.90
26537;DHT22;14204;51.262;5.488;2023-07-31T06:26:22;18.90;99.90
26537;DHT22;14204;51.262;5.488;2023-07-31T06:28:47;18.90;99.90
26537;DHT22;14204;51.262;5.488;2023-07-31T06:31:13;18.90;99.90
26537;DHT22;14204;51.262;5.488;2023-07-31T06:33:39;18.90;99.90
26537;DHT22;14204;51.262;5.488;2023-07-31T06:36:04;18.90;99.90
26537;DHT22;14204;51.262;5.488;2023-07-31T06:38:30;18.80;99.90
26537;DHT22;14204;51.262;5.488;2023-07-31T06:40:56;18.80;99.90
26537;DHT22;14204;51.262;5.488;2023-07-31T06:43:22;18.80;99.90
26537;DHT22;14204;51.262;5.488;2023-07-31T06:45:47;18.70;99.90
26537;DHT22;14204;51.262;5.488;2023-07-31T06:48:16;18.70;99.90
26537;DHT22;14204;51.262;5.488;2023-07-31T06:50:42;18.80;99.90
26537;DHT22;14204;51.262;5.488;2023-07-31T06:53:08;18.80;99.90
26537;DHT22;14204;51.262;5.488;2023-07-31T06:55:33;18.80;99.90
26537;DHT22;14204;51.262;5.488;2023-07-31T06:57:59;18.80;99.90
26537;DHT22;14204;51.262;5.488;2023-07-31T07:00:25;18.70;99.90
26537;DHT22;14204;51.262;5.488;2023-07-31T07:02:50;18.90;99.90
26537;DHT22;14204;51.262;5.488;2023-07-31T07:05:17;18.90;99.90
26537;DHT22;14204;51.262;5.488;2023-07-31T07:07:43;18.90;99.90
26537;DHT22;14204;51.262;5.488;2023-07-31T07:10:09;19.00;99.90
26537;DHT22;14204;51.262;5.488;2023-07-31T07:12:35;19.00;99.90
26537;DHT22;14204;51.262;5.488;2023-07-31T07:15:01;18.90;99.90
26537;DHT22;14204;51.262;5.488;2023-07-31T07:17:28;18.80;99.90
26537;DHT22;14204;51.262;5.488;2023-07-31T07:19:56;18.80;99.90
26537;DHT22;14204;51.262;5.488;2023-07-31T07:22:22;18.90;99.90
26537;DHT22;14204;51.262;5.488;2023-07-31T07:24:48;18.80;99.90
26537;DHT22;14204;51.262;5.488;2023-07-31T07:27:14;18.80;99.90
26537;DHT22;14204;51.262;5.488;2023-07-31T07:29:40;18.80;99.90
26537;DHT22;14204;51.262;5.488;2023-07-31T07:32:06;18.70;99.90
26537;DHT22;14204;51.262;5.488;2023-07-31T07:34:32;18.70;99.90
26537;DHT22;14204;51.262;5.488;2023-07-31T07:36:57;18.60;99.90
26537;DHT22;14204;51.262;5.488;2023-07-31T07:39:23;18.50;99.90
26537;DHT22;14204;51.262;5.488;2023-07-31T07:41:49;18.40;99.90
26537;DHT22;14204;51.262;5.488;2023-07-31T07:44:15;18.60;99.90
26537;DHT22;14204;51.262;5.488;2023-07-31T07:46:41;18.60;99.90
26537;DHT22;14204;51.262;5.488;2023-07-31T07:49:06;18.70;99.90
26537;DHT22;14204;51.262;5.488;2023-07-31T07:51:32;18.70;99.90
26537;DHT22;14204;51.262;5.488;2023-07-31T07:53:58;18.70;99.90
26537;DHT22;14204;51.262;5.488;2023-07-31T07:56:26;18.70;99.90
26537;DHT22;14204;51.262;5.488;2023-07-31T07:58:51;18.80;99.90
26537;DHT22;14204;51.262;5.488;2023-07-31T08:01:17;18.80;99.90
26537;DHT22;14204;51.262;5.488;2023-07-31T08:03:43;18.90;99.90
26537;DHT22;14204;51.262;5.488;2023-07-31T08:06:09;18.80;99.90
26537;DHT22;14204;51.262;5.488;2023-07-31T08:08:38;18.80;99.90
26537;DHT22;14204;51.262;5.488;2023-07-31T08:11:04;18.80;99.90
26537;DHT22;14204;51.262;5.488;2023-07-31T08:13:30;18.80;99.90
26537;DHT22;14204;51.262;5.488;2023-07-31T08:15:56;18.90;99.90
26537;DHT22;14204;51.262;5.488;2023-07-31T08:18:22;18.90;99.90
26537;DHT22;14204;51.262;5.488;2023-07-31T08:20:47;19.00;99.90
26537;DHT22;14204;51.262;5.488;2023-07-31T08:23:13;19.00;99.90
26537;DHT22;14204;51.262;5.488;2023-07-31T08:25:39;19.00;99.90
26537;DHT22;14204;51.262;5.488;2023-07-31T08:28:06;19.00;99.90
26537;DHT22;14204;51.262;5.488;2023-07-31T08:30:32;19.00;99.90
26537;DHT22;14204;51.262;5.488;2023-07-31T08:32:59;19.10;99.90
26537;DHT22;14204;51.262;5.488;2023-07-31T08:35:26;19.00;99.90
26537;DHT22;14204;51.262;5.488;2023-07-31T08:37:53;19.10;99.90
26537;DHT22;14204;51.262;5.488;2023-07-31T08:40:19;19.10;99.90
26537;DHT22;14204;51.262;5.488;2023-07-31T08:42:46;19.10;99.90
26537;DHT22;14204;51.262;5.488;2023-07-31T08:45:17;19.10;99.90
26537;DHT22;14204;51.262;5.488;2023-07-31T08:47:45;19.10;99.90
26537;DHT22;14204;51.262;5.488;2023-07-31T08:50:15;19.10;99.90
26537;DHT22;14204;51.262;5.488;2023-07-31T08:52:41;19.10;99.90
26537;DHT22;14204;51.262;5.488;2023-07-31T08:55:07;19.10;99.90
26537;DHT22;14204;51.262;5.488;2023-07-31T08:57:38;19.10;99.90
26537;DHT22;14204;51.262;5.488;2023-07-31T09:00:12;19.20;99.90
26537;DHT22;14204;51.262;5.488;2023-07-31T09:02:45;19.10;99.90
26537;DHT22;14204;51.262;5.488;2023-07-31T09:05:11;19.30;99.90
26537;DHT22;14204;51.262;5.488;2023-07-31T09:07:37;19.30;99.90
26537;DHT22;14204;51.262;5.488;2023-07-31T09:10:04;19.30;99.90
26537;DHT22;14204;51.262;5.488;2023-07-31T09:12:31;19.40;99.90
26537;DHT22;14204;51.262;5.488;2023-07-31T09:14:58;19.40;99.90
26537;DHT22;14204;51.262;5.488;2023-07-31T09:17:35;19.50;99.90
26537;DHT22;14204;51.262;5.488;2023-07-31T09:20:30;19.60;99.90
26537;DHT22;14204;51.262;5.488;2023-07-31T09:22:57;19.50;99.90
26537;DHT22;14204;51.262;5.488;2023-07-31T09:25:30;19.50;99.90
26537;DHT22;14204;51.262;5.488;2023-07-31T09:28:04;19.50;99.90
26537;DHT22;14204;51.262;5.488;2023-07-31T09:30:30;19.80;99.90
26537;DHT22;14204;51.262;5.488;2023-07-31T09:33:04;19.80;99.90
26537;DHT22;14204;51.262;5.488;2023-07-31T09:35:35;19.90;99.90
26537;DHT22;14204;51.262;5.488;2023-07-31T09:38:08;19.90;99.90
26537;DHT22;14204;51.262;5.488;2023-07-31T09:40:37;19.90;99.90
26537;DHT22;14204;51.262;5.488;2023-07-31T09:43:07;20.00;99.90
26537;DHT22;14204;51.262;5.488;2023-07-31T09:45:39;20.10;99.90
26537;DHT22;14204;51.262;5.488;2023-07-31T09:48:10;20.20;99.90
26537;DHT22;14204;51.262;5.488;2023-07-31T09:50:45;20.20;99.90
26537;DHT22;14204;51.262;5.488;2023-07-31T09:53:11;20.20;99.90
26537;DHT22;14204;51.262;5.488;2023-07-31T09:55:38;20.20;99.90
26537;DHT22;14204;51.262;5.488;2023-07-31T09:58:11;20.30;99.90
26537;DHT22;14204;51.262;5.488;2023-07-31T10:00:37;20.30;99.90
26537;DHT22;14204;51.262;5.488;2023-07-31T10:03:08;20.30;99.90
26537;DHT22;14204;51.262;5.488;2023-07-31T10:05:38;20.30;99.90
26537;DHT22;14204;51.262;5.488;2023-07-31T10:08:07;20.20;99.90
26537;DHT22;14204;51.262;5.488;2023-07-31T10:10:36;20.20;99.90
26537;DHT22;14204;51.262;5.488;2023-07-31T10:13:04;20.20;99.90
26537;DHT22;14204;51.262;5.488;2023-07-31T10:15:30;20.30;99.90
26537;DHT22;14204;51.262;5.488;2023-07-31T10:17:58;20.40;99.90
26537;DHT22;14204;51.262;5.488;2023-07-31T10:20:24;20.40;99.90
26537;DHT22;14204;51.262;5.488;2023-07-31T10:22:51;20.30;99.90
26537;DHT22;14204;51.262;5.488;2023-07-31T10:25:18;20.30;99.90
26537;DHT22;14204;51.262;5.488;2023-07-31T10:28:33;20.40;99.90
26537;DHT22;14204;51.262;5.488;2023-07-31T10:30:45;20.40;99.90
26537;DHT22;14204;51.262;5.488;2023-07-31T10:33:11;20.30;99.90
26537;DHT22;14204;51.262;5.488;2023-07-31T10:35:37;20.30;99.90
26537;DHT22;14204;51.262;5.488;2023-07-31T10:38:11;20.30;99.90
26537;DHT22;14204;51.262;5.488;2023-07-31T10:40:39;20.20;99.90
26537;DHT22;14204;51.262;5.488;2023-07-31T10:43:06;20.20;99.90
26537;DHT22;14204;51.262;5.488;2023-07-31T10:45:39;20.20;99.90
26537;DHT22;14204;51.262;5.488;2023-07-31T10:50:32;20.20;99.90
26537;DHT22;14204;51.262;5.488;2023-07-31T10:53:02;20.30;99.90
26537;DHT22;14204;51.262;5.488;2023-07-31T10:55:42;20.30;99.90
26537;DHT22;14204;51.262;5.488;2023-07-31T10:58:11;20.40;99.90
26537;DHT22;14204;51.262;5.488;2023-07-31T11:00:41;20.40;99.90
26537;DHT22;14204;51.262;5.488;2023-07-31T11:03:17;20.50;99.90
26537;DHT22;14204;51.262;5.488;2023-07-31T11:06:33;20.50;99.90
26537;DHT22;14204;51.262;5.488;2023-07-31T11:08:54;20.60;99.90
26537;DHT22;14204;51.262;5.488;2023-07-31T11:11:21;20.70;99.90
26537;DHT22;14204;51.262;5.488;2023-07-31T11:16:17;20.70;99.90
26537;DHT22;14204;51.262;5.488;2023-07-31T11:18:44;20.60;99.90
26537;DHT22;14204;51.262;5.488;2023-07-31T11:21:18;20.70;99.90
26537;DHT22;14204;51.262;5.488;2023-07-31T11:23:52;20.70;99.90
26537;DHT22;14204;51.262;5.488;2023-07-31T11:26:20;20.70;99.90
26537;DHT22;14204;51.262;5.488;2023-07-31T11:28:49;20.80;99.90
26537;DHT22;14204;51.262;5.488;2023-07-31T11:31:16;20.80;99.90
26537;DHT22;14204;51.262;5.488;2023-07-31T11:33:42;20.80;99.90
26537;DHT22;14204;51.262;5.488;2023-07-31T11:36:18;20.80;99.90
26537;DHT22;14204;51.262;5.488;2023-07-31T11:38:44;20.80;99.90
26537;DHT22;14204;51.262;5.488;2023-07-31T11:41:10;20.90;99.90
26537;DHT22;14204;51.262;5.488;2023-07-31T11:43:35;20.80;99.90
26537;DHT22;14204;51.262;5.488;2023-07-31T11:46:04;20.90;99.90
26537;DHT22;14204;51.262;5.488;2023-07-31T11:48:34;20.90;99.90
26537;DHT22;14204;51.262;5.488;2023-07-31T11:51:05;20.80;99.90
26537;DHT22;14204;51.262;5.488;2023-07-31T11:56:02;21.00;99.90
26537;DHT22;14204;51.262;5.488;2023-07-31T11:58:31;21.00;99.90
26537;DHT22;14204;51.262;5.488;2023-07-31T12:00:58;21.00;99.90
26537;DHT22;14204;51.262;5.488;2023-07-31T12:03:24;21.00;99.90
26537;DHT22;14204;51.262;5.488;2023-07-31T12:05:50;21.00;99.90
26537;DHT22;14204;51.262;5.488;2023-07-31T12:08:15;21.10;99.90
26537;DHT22;14204;51.262;5.488;2023-07-31T12:10:41;21.10;99.90
26537;DHT22;14204;51.262;5.488;2023-07-31T12:13:24;21.10;99.90
26537;DHT22;14204;51.262;5.488;2023-07-31T12:15:54;21.10;99.90
26537;DHT22;14204;51.262;5.488;2023-07-31T12:18:22;21.10;99.90
26537;DHT22;14204;51.262;5.488;2023-07-31T12:20:49;21.20;99.90
26537;DHT22;14204;51.262;5.488;2023-07-31T12:23:20;21.20;99.90
26537;DHT22;14204;51.262;5.488;2023-07-31T12:26:07;21.30;99.90
26537;DHT22;14204;51.262;5.488;2023-07-31T12:28:37;21.10;99.90
26537;DHT22;14204;51.262;5.488;2023-07-31T12:31:06;21.20;99.90
26537;DHT22;14204;51.262;5.488;2023-07-31T12:33:34;21.20;99.90
26537;DHT22;14204;51.262;5.488;2023-07-31T12:36:05;21.20;99.90
26537;DHT22;14204;51.262;5.488;2023-07-31T12:38:32;21.20;99.90
26537;DHT22;14204;51.262;5.488;2023-07-31T12:40:58;21.30;99.90
26537;DHT22;14204;51.262;5.488;2023-07-31T12:43:24;21.30;99.90
26537;DHT22;14204;51.262;5.488;2023-07-31T12:45:49;21.20;99.90
26537;DHT22;14204;51.262;5.488;2023-07-31T12:48:15;21.20;99.90
26537;DHT22;14204;51.262;5.488;2023-07-31T12:50:41;21.20;99.90
26537;DHT22;14204;51.262;5.488;2023-07-31T12:53:07;21.30;99.90
26537;DHT22;14204;51.262;5.488;2023-07-31T12:55:33;21.30;99.90
26537;DHT22;14204;51.262;5.488;2023-07-31T12:58:03;21.40;99.90
26537;DHT22;14204;51.262;5.488;2023-07-31T13:00:29;21.30;99.90
26537;DHT22;14204;51.262;5.488;2023-07-31T13:02:55;21.30;99.90
26537;DHT22;14204;51.262;5.488;2023-07-31T13:05:21;21.40;99.90
26537;DHT22;14204;51.262;5.488;2023-07-31T13:07:47;21.40;99.90
26537;DHT22;14204;51.262;5.488;2023-07-31T13:10:13;21.30;99.90
26537;DHT22;14204;51.262;5.488;2023-07-31T13:12:39;21.10;99.90
26537;DHT22;14204;51.262;5.488;2023-07-31T13:15:05;21.20;99.90
26537;DHT22;14204;51.262;5.488;2023-07-31T13:17:32;21.30;99.90
26537;DHT22;14204;51.262;5.488;2023-07-31T13:19:58;21.10;99.90
26537;DHT22;14204;51.262;5.488;2023-07-31T13:22:24;21.20;99.90
26537;DHT22;14204;51.262;5.488;2023-07-31T13:24:49;21.20;99.90
26537;DHT22;14204;51.262;5.488;2023-07-31T13:27:15;21.20;99.90
26537;DHT22;14204;51.262;5.488;2023-07-31T13:29:46;21.20;99.90
26537;DHT22;14204;51.262;5.488;2023-07-31T13:32:12;21.20;99.90
26537;DHT22;14204;51.262;5.488;2023-07-31T13:34:37;21.30;99.90
26537;DHT22;14204;51.262;5.488;2023-07-31T13:37:03;21.30;99.90
26537;DHT22;14204;51.262;5.488;2023-07-31T13:39:31;21.20;99.90
26537;DHT22;14204;51.262;5.488;2023-07-31T13:41:58;21.20;99.90
26537;DHT22;14204;51.262;5.488;2023-07-31T13:44:24;21.20;99.90
26537;DHT22;14204;51.262;5.488;2023-07-31T13:46:49;21.20;99.90
26537;DHT22;14204;51.262;5.488;2023-07-31T13:49:15;21.20;99.90
26537;DHT22;14204;51.262;5.488;2023-07-31T13:51:41;21.20;99.90
26537;DHT22;14204;51.262;5.488;2023-07-31T13:54:06;21.40;99.90
26537;DHT22;14204;51.262;5.488;2023-07-31T13:56:32;21.30;99.90
26537;DHT22;14204;51.262;5.488;2023-07-31T13:58:58;21.20;99.90
26537;DHT22;14204;51.262;5.488;2023-07-31T14:01:26;21.10;99.90
26537;DHT22;14204;51.262;5.488;2023-07-31T14:03:53;21.10;99.90
26537;DHT22;14204;51.262;5.488;2023-07-31T14:06:19;21.00;99.90
26537;DHT22;14204;51.262;5.488;2023-07-31T14:08:45;21.10;99.90
26537;DHT22;14204;51.262;5.488;2023-07-31T14:11:11;21.10;99.90
26537;DHT22;14204;51.262;5.488;2023-07-31T14:13:36;20.90;99.90
26537;DHT22;14204;51.262;5.488;2023-07-31T14:16:02;21.00;99.90
26537;DHT22;14204;51.262;5.488;2023-07-31T14:18:28;20.90;99.90
26537;DHT22;14204;51.262;5.488;2023-07-31T14:20:53;20.90;99.90
26537;DHT22;14204;51.262;5.488;2023-07-31T14:23:19;21.00;99.90
26537;DHT22;14204;51.262;5.488;2023-07-31T14:25:48;20.80;99.90
26537;DHT22;14204;51.262;5.488;2023-07-31T14:28:14;20.90;99.90
26537;DHT22;14204;51.262;5.488;2023-07-31T14:30:39;20.90;99.90
26537;DHT22;14204;51.262;5.488;2023-07-31T14:33:05;20.80;99.90
26537;DHT22;14204;51.262;5.488;2023-07-31T14:35:31;20.80;99.90
26537;DHT22;14204;51.262;5.488;2023-07-31T14:37:56;20.90;99.90
26537;DHT22;14204;51.262;5.488;2023-07-31T14:40:22;20.90;99.90
26537;DHT22;14204;51.262;5.488;2023-07-31T14:42:48;20.90;99.90
26537;DHT22;14204;51.262;5.488;2023-07-31T14:45:14;20.90;99.90
26537;DHT22;14204;51.262;5.488;2023-07-31T14:47:39;20.90;99.90
26537;DHT22;14204;51.262;5.488;2023-07-31T14:53:44;20.80;99.90
26537;DHT22;14204;51.262;5.488;2023-07-31T14:56:09;20.70;99.90
26537;DHT22;14204;51.262;5.488;2023-07-31T14:58:36;20.70;99.90
26537;DHT22;14204;51.262;5.488;2023-07-31T15:01:02;20.70;99.90
26537;DHT22;14204;51.262;5.488;2023-07-31T15:03:27;20.60;99.90
26537;DHT22;14204;51.262;5.488;2023-07-31T15:05:53;20.60;99.90
26537;DHT22;14204;51.262;5.488;2023-07-31T15:08:19;20.60;99.90
26537;DHT22;14204;51.262;5.488;2023-07-31T15:10:45;20.50;99.90
26537;DHT22;14204;51.262;5.488;2023-07-31T15:13:10;20.60;99.90
26537;DHT22;14204;51.262;5.488;2023-07-31T15:15:36;20.50;99.90
26537;DHT22;14204;51.262;5.488;2023-07-31T15:18:02;20.50;99.90
26537;DHT22;14204;51.262;5.488;2023-07-31T15:20:28;20.50;99.90
26537;DHT22;14204;51.262;5.488;2023-07-31T15:22:55;20.50;99.90
26537;DHT22;14204;51.262;5.488;2023-07-31T15:25:21;20.50;99.90
26537;DHT22;14204;51.262;5.488;2023-07-31T15:27:47;20.40;99.90
26537;DHT22;14204;51.262;5.488;2023-07-31T15:30:12;20.40;99.90
26537;DHT22;14204;51.262;5.488;2023-07-31T15:32:38;20.40;99.90
26537;DHT22;14204;51.262;5.488;2023-07-31T15:35:05;20.40;99.90
26537;DHT22;14204;51.262;5.488;2023-07-31T15:37:31;20.40;99.90
26537;DHT22;14204;51.262;5.488;2023-07-31T15:39:57;20.30;99.90
26537;DHT22;14204;51.262;5.488;2023-07-31T15:42:23;20.30;99.90
26537;DHT22;14204;51.262;5.488;2023-07-31T15:44:49;20.30;99.90
26537;DHT22;14204;51.262;5.488;2023-07-31T15:47:14;20.30;99.90